Current Weather

Santa Rosa

Santa Rosa, Bolivia (SLSR)

Report from: Saturday, November 19, 2022 7:00 PM UTC
Current time: Sunday, December 4, 2022 12:07 PM UTC

Nearby weather
Weather history
Weather forecast

Temperature35.0°C (95.0°F)
Heat index41.9°C (107.5°F)
Dew point24.0°C (75.2°F)
Winds 12 kts (6.2 m/s, 13.8 mph) North-Northwest (340°)
Visibility6.2 mi. (10 km)
Clouds Scattered clouds 1,700 ft. (518 m)
Altimeter29.71 in.Hg (1006 mB)
Relative humidity53 %
Density altitude2,911 ft. (887 m)
Flight conditions Visual Meteorological Conditions
Raw dataSLSR 191900Z 34012KT 9999 SCT017 35/24 Q1006
An error has occurred. This application may no longer respond until reloaded. Reload 🗙